createdAt,value
2022-09-06T00:00:27.395Z,13.20
2022-09-06T00:01:27.604Z,18.40
2022-09-06T00:02:27.974Z,17.00
2022-09-06T00:03:28.218Z,13.60
2022-09-06T00:04:28.531Z,16.30
2022-09-06T00:05:28.732Z,15.80
2022-09-06T00:06:29.208Z,15.30
2022-09-06T00:07:29.369Z,19.30
2022-09-06T00:08:29.637Z,13.50
2022-09-06T00:09:29.856Z,16.40
2022-09-06T00:10:30.235Z,14.90
2022-09-06T00:11:30.490Z,13.30
2022-09-06T00:12:30.739Z,13.80
2022-09-06T00:13:30.989Z,13.50
2022-09-06T00:14:31.402Z,10.50
2022-09-06T00:15:31.733Z,11.90
2022-09-06T00:16:32.113Z,13.40
2022-09-06T00:17:32.261Z,11.30
2022-09-06T00:18:32.483Z,10.60
2022-09-06T00:19:32.841Z,12.20
2022-09-06T00:20:33.098Z,16.90
2022-09-06T00:21:33.814Z,14.90
2022-09-06T00:22:33.684Z,14.80
2022-09-06T00:23:33.918Z,15.20
2022-09-06T00:24:34.143Z,12.60
2022-09-06T00:25:34.428Z,13.00
2022-09-06T00:26:34.728Z,11.40
2022-09-06T00:27:34.992Z,10.80
2022-09-06T00:28:35.284Z,12.20
2022-09-06T00:29:35.605Z,10.20
2022-09-06T00:30:35.859Z,12.10
2022-09-06T00:31:36.149Z,11.60
2022-09-06T00:32:36.433Z,16.50
2022-09-06T00:33:36.813Z,17.00
2022-09-06T00:34:37.035Z,15.40
2022-09-06T00:35:37.294Z,13.40
2022-09-06T00:36:37.614Z,12.40
2022-09-06T00:37:37.856Z,11.70
2022-09-06T00:38:38.141Z,11.80
2022-09-06T00:39:38.378Z,12.60
2022-09-06T00:40:38.601Z,12.40
2022-09-06T00:41:38.964Z,15.50
2022-09-06T00:42:39.256Z,14.10
2022-09-06T00:43:39.492Z,11.40
2022-09-06T00:44:39.797Z,11.10
2022-09-06T00:45:39.991Z,10.90
2022-09-06T00:46:40.412Z,11.20
2022-09-06T00:47:40.679Z,11.00
2022-09-06T00:48:40.941Z,11.80
2022-09-06T00:49:41.214Z,10.20
2022-09-06T00:50:41.459Z,12.70
2022-09-06T00:51:41.810Z,12.50
2022-09-06T00:52:42.011Z,9.30
2022-09-06T00:53:42.763Z,13.50
2022-09-06T00:54:42.541Z,12.00
2022-09-06T00:55:42.743Z,12.80
2022-09-06T00:56:43.016Z,15.10
2022-09-06T00:57:43.276Z,13.40
2022-09-06T00:58:43.672Z,11.20
2022-09-06T00:59:43.863Z,10.00
2022-09-06T01:00:44.129Z,16.40
2022-09-06T01:01:44.608Z,10.60
2022-09-06T01:02:44.919Z,11.00
2022-09-06T01:03:45.108Z,13.00
2022-09-06T01:04:45.354Z,13.30
2022-09-06T01:05:45.578Z,9.40
2022-09-06T01:06:45.913Z,11.00
2022-09-06T01:07:46.238Z,12.20
2022-09-06T01:08:46.484Z,11.40
2022-09-06T01:09:46.734Z,12.30
2022-09-06T01:10:47.071Z,14.60
2022-09-06T01:11:47.251Z,10.90
2022-09-06T01:12:47.535Z,13.40
2022-09-06T01:13:47.800Z,13.70
2022-09-06T01:14:48.116Z,10.90
2022-09-06T01:15:48.431Z,10.60
2022-09-06T01:16:48.644Z,13.50
2022-09-06T01:17:48.934Z,12.70
2022-09-06T01:18:49.284Z,10.20
2022-09-06T01:19:49.582Z,14.50
2022-09-06T01:20:49.859Z,13.50
2022-09-06T01:21:50.099Z,11.90
2022-09-06T01:22:50.431Z,13.60
2022-09-06T01:23:50.778Z,13.20
2022-09-06T01:24:51.085Z,17.40
2022-09-06T01:25:51.364Z,11.80
2022-09-06T01:26:51.676Z,15.30
2022-09-06T01:27:51.971Z,14.70
2022-09-06T01:28:53.133Z,13.60
2022-09-06T01:29:52.483Z,12.80
2022-09-06T01:30:52.793Z,18.10
2022-09-06T01:31:53.030Z,15.10
2022-09-06T01:32:54.279Z,15.80
2022-09-06T01:33:53.587Z,13.00
2022-09-06T01:34:53.915Z,14.40
2022-09-06T01:35:54.215Z,15.50
2022-09-06T01:37:09.585Z,16.80
2022-09-06T01:37:55.810Z,17.00
2022-09-06T01:38:55.048Z,17.70
2022-09-06T01:39:55.448Z,14.80
2022-09-06T01:40:55.680Z,14.50
2022-09-06T01:41:55.951Z,11.60
2022-09-06T01:42:56.196Z,10.10
2022-09-06T01:43:56.434Z,9.80
2022-09-06T01:44:56.854Z,12.20
2022-09-06T01:45:57.179Z,9.20
2022-09-06T01:46:57.319Z,7.90
2022-09-06T01:47:57.539Z,10.70
2022-09-06T01:48:57.740Z,12.10
2022-09-06T01:49:58.043Z,10.80
2022-09-06T01:50:58.386Z,11.30
2022-09-06T01:51:58.612Z,10.60
2022-09-06T01:52:58.872Z,10.60
2022-09-06T01:53:59.103Z,11.30
2022-09-06T01:54:59.441Z,24.00
2022-09-06T01:55:59.741Z,12.60
2022-09-06T01:56:59.983Z,13.90
2022-09-06T01:58:00.262Z,14.40
2022-09-06T01:59:00.523Z,12.80
2022-09-06T02:00:00.826Z,15.30
2022-09-06T02:01:01.202Z,10.80
2022-09-06T02:02:01.428Z,13.60
2022-09-06T02:03:01.729Z,10.90
2022-09-06T02:04:02.417Z,13.00
2022-09-06T02:05:02.239Z,14.80
2022-09-06T02:06:02.541Z,15.90
2022-09-06T02:07:02.855Z,12.30
2022-09-06T02:08:03.593Z,16.90
2022-09-06T02:09:03.495Z,12.70
2022-09-06T02:10:03.804Z,14.60
2022-09-06T02:11:04.022Z,14.20
2022-09-06T02:12:04.333Z,9.00
2022-09-06T02:13:04.597Z,9.10
2022-09-06T02:14:04.822Z,15.20
2022-09-06T02:15:05.119Z,12.30
2022-09-06T02:16:05.475Z,10.10
2022-09-06T02:17:05.890Z,8.70
2022-09-06T02:18:05.953Z,12.10
2022-09-06T02:19:06.282Z,11.60
2022-09-06T02:20:06.594Z,11.20
2022-09-06T02:21:07.744Z,13.00
2022-09-06T02:22:07.177Z,13.20
2022-09-06T02:23:07.494Z,10.60
2022-09-06T02:24:07.834Z,12.20
2022-09-06T02:25:08.097Z,12.30
2022-09-06T02:26:08.362Z,11.70
2022-09-06T02:27:08.579Z,11.80
2022-09-06T02:28:08.798Z,14.30
2022-09-06T02:29:09.158Z,11.90
2022-09-06T02:30:09.402Z,14.00
2022-09-06T02:31:09.751Z,13.60
2022-09-06T02:32:10.045Z,11.40
2022-09-06T02:33:10.278Z,8.90
2022-09-06T02:34:10.560Z,12.80
2022-09-06T02:35:10.851Z,8.40
2022-09-06T02:36:11.308Z,8.90
2022-09-06T02:37:11.519Z,9.20
2022-09-06T02:38:11.758Z,12.40
2022-09-06T02:39:12.091Z,11.90
2022-09-06T02:40:12.398Z,10.80
2022-09-06T02:41:13.467Z,11.00
2022-09-06T02:42:12.888Z,15.60
2022-09-06T02:43:13.109Z,10.60
2022-09-06T02:44:13.407Z,11.10
2022-09-06T02:45:13.713Z,11.80
2022-09-06T02:46:14.014Z,9.00
2022-09-06T02:47:14.355Z,9.20
2022-09-06T02:48:14.509Z,7.00
2022-09-06T02:49:14.775Z,12.00
2022-09-06T02:50:15.007Z,7.60
2022-09-06T02:51:15.345Z,11.40
2022-09-06T02:52:15.579Z,10.30
2022-09-06T02:53:15.925Z,8.80
2022-09-06T02:54:16.214Z,9.20
2022-09-06T02:55:16.534Z,9.60
2022-09-06T02:56:16.739Z,6.80
2022-09-06T02:57:17.084Z,9.80
2022-09-06T02:58:17.352Z,9.90
2022-09-06T02:59:17.573Z,9.30
2022-09-06T03:00:17.881Z,9.10
2022-09-06T03:01:18.189Z,9.30
2022-09-06T03:02:18.429Z,8.50
2022-09-06T03:03:18.728Z,7.40
2022-09-06T03:04:18.994Z,11.20
2022-09-06T03:05:19.216Z,13.20
2022-09-06T03:06:19.664Z,8.80
2022-09-06T03:07:19.933Z,6.90
2022-09-06T03:08:20.229Z,10.40
2022-09-06T03:09:20.519Z,9.50
2022-09-06T03:10:20.749Z,12.30
2022-09-06T03:11:21.150Z,8.50
2022-09-06T03:12:21.492Z,11.20
2022-09-06T03:13:21.699Z,9.20
2022-09-06T03:14:22.868Z,10.50
2022-09-06T03:15:22.185Z,12.00
2022-09-06T03:16:22.557Z,20.90
2022-09-06T03:17:22.730Z,17.80
2022-09-06T03:18:23.031Z,14.80
2022-09-06T03:19:23.342Z,10.20
2022-09-06T03:20:23.611Z,8.80
2022-09-06T03:21:23.970Z,7.70
2022-09-06T03:22:24.201Z,11.30
2022-09-06T03:23:24.524Z,9.20
2022-09-06T03:24:24.798Z,11.20
2022-09-06T03:25:25.173Z,8.50
2022-09-06T03:26:25.357Z,10.90
2022-09-06T03:27:25.599Z,9.30
2022-09-06T03:28:25.892Z,13.80
2022-09-06T03:29:26.187Z,12.20
2022-09-06T03:30:26.582Z,9.40
2022-09-06T03:31:26.713Z,10.90
2022-09-06T03:32:27.007Z,8.40
2022-09-06T03:33:27.306Z,12.70
2022-09-06T03:34:27.552Z,11.10
2022-09-06T03:35:27.879Z,13.20
2022-09-06T03:36:28.201Z,11.70
2022-09-06T03:37:28.448Z,12.40
2022-09-06T03:38:28.774Z,9.40
2022-09-06T03:39:29.070Z,12.70
2022-09-06T03:40:29.288Z,11.80
2022-09-06T03:41:29.640Z,12.10
2022-09-06T03:42:29.947Z,10.20
2022-09-06T03:43:30.216Z,10.40
2022-09-06T03:44:30.575Z,11.30
2022-09-06T03:45:30.822Z,9.90
2022-09-06T03:46:31.118Z,15.20
2022-09-06T03:47:31.390Z,8.80
2022-09-06T03:48:31.705Z,13.20
2022-09-06T03:49:31.926Z,9.10
2022-09-06T03:50:32.295Z,13.00
2022-09-06T03:51:32.486Z,11.70
2022-09-06T03:52:32.703Z,13.90
2022-09-06T03:53:33.175Z,10.20
2022-09-06T03:54:33.307Z,13.20
2022-09-06T03:55:33.694Z,12.80
2022-09-06T03:56:34.002Z,13.80
2022-09-06T03:57:34.283Z,9.40
2022-09-06T03:58:34.547Z,10.90
2022-09-06T03:59:34.851Z,12.30
2022-09-06T04:00:35.071Z,12.00
2022-09-06T04:01:35.457Z,9.10
2022-09-06T04:02:35.729Z,13.20
2022-09-06T04:03:36.012Z,10.80
2022-09-06T04:04:36.264Z,7.90
2022-09-06T04:05:36.484Z,11.40
2022-09-06T04:06:36.696Z,12.20
2022-09-06T04:07:36.919Z,12.00
2022-09-06T04:08:37.182Z,10.30
2022-09-06T04:09:37.547Z,11.10
2022-09-06T04:10:37.807Z,12.00
2022-09-06T04:11:38.135Z,10.80
2022-09-06T04:12:38.454Z,11.60
2022-09-06T04:13:38.763Z,12.70
2022-09-06T04:14:39.035Z,10.20
2022-09-06T04:15:39.403Z,11.60
2022-09-06T04:16:39.732Z,8.40
2022-09-06T04:17:39.987Z,9.80
2022-09-06T04:18:40.276Z,9.00
2022-09-06T04:19:40.497Z,11.00
2022-09-06T04:20:40.714Z,10.30
2022-09-06T04:21:41.029Z,9.10
2022-09-06T04:22:41.350Z,10.20
2022-09-06T04:23:41.508Z,9.90
2022-09-06T04:24:41.752Z,11.50
2022-09-06T04:25:42.050Z,10.60
2022-09-06T04:26:42.310Z,11.10
2022-09-06T04:27:42.605Z,11.30
2022-09-06T04:28:42.995Z,9.70
2022-09-06T04:29:43.253Z,11.10
2022-09-06T04:30:43.519Z,9.50
2022-09-06T04:31:43.918Z,9.00
2022-09-06T04:32:44.088Z,11.70
2022-09-06T04:33:44.443Z,10.20
2022-09-06T04:34:44.699Z,11.70
2022-09-06T04:35:44.917Z,12.50
2022-09-06T04:36:48.315Z,11.80
2022-09-06T04:37:45.495Z,12.40
2022-09-06T04:38:45.748Z,11.90
2022-09-06T04:39:46.046Z,12.40
2022-09-06T04:40:46.280Z,9.90
2022-09-06T04:41:46.568Z,13.40
2022-09-06T04:42:46.802Z,10.10
2022-09-06T04:43:47.016Z,13.60
2022-09-06T04:44:48.165Z,10.70
2022-09-06T04:45:47.689Z,12.50
2022-09-06T04:46:47.899Z,15.20
2022-09-06T04:47:48.131Z,13.70
2022-09-06T04:48:48.393Z,13.00
2022-09-06T04:49:48.640Z,13.80
2022-09-06T04:50:48.860Z,12.60
2022-09-06T04:51:49.214Z,11.50
2022-09-06T04:52:49.470Z,14.90
2022-09-06T04:53:49.675Z,12.20
2022-09-06T04:54:50.024Z,13.10
2022-09-06T04:55:50.363Z,12.20
2022-09-06T04:56:50.699Z,14.90
2022-09-06T04:57:51.454Z,14.10
2022-09-06T04:58:51.266Z,11.60
2022-09-06T04:59:51.534Z,12.20
2022-09-06T05:00:51.849Z,15.70
2022-09-06T05:01:52.033Z,15.60
2022-09-06T05:02:52.368Z,14.10
2022-09-06T05:03:56.604Z,16.40
2022-09-06T05:04:52.980Z,18.40
2022-09-06T05:05:53.210Z,15.10
2022-09-06T05:06:53.432Z,18.00
2022-09-06T05:07:53.832Z,14.20
2022-09-06T05:08:54.090Z,12.70
2022-09-06T05:09:54.347Z,11.40
2022-09-06T05:10:54.609Z,11.60
2022-09-06T05:11:54.823Z,11.90
2022-09-06T05:12:55.181Z,10.90
2022-09-06T05:13:55.452Z,14.50
2022-09-06T05:14:55.657Z,15.30
2022-09-06T05:15:56.023Z,11.80
2022-09-06T05:16:56.408Z,12.40
2022-09-06T05:17:56.498Z,13.90
2022-09-06T05:18:56.774Z,11.70
2022-09-06T05:19:57.041Z,11.00
2022-09-06T05:20:57.249Z,9.30
2022-09-06T05:21:57.620Z,14.90
2022-09-06T05:22:57.870Z,13.50
2022-09-06T05:23:58.899Z,15.40
2022-09-06T05:24:59.419Z,11.90
2022-09-06T05:25:58.674Z,15.70
2022-09-06T05:26:58.981Z,18.80
2022-09-06T05:27:59.256Z,16.10
2022-09-06T05:28:59.602Z,18.70
2022-09-06T05:29:59.818Z,18.70
2022-09-06T05:31:00.034Z,17.60
2022-09-06T05:32:00.340Z,19.00
2022-09-06T05:33:00.552Z,17.40
2022-09-06T05:34:00.886Z,25.40
2022-09-06T05:35:01.070Z,27.50
2022-09-06T05:36:01.348Z,26.30
2022-09-06T05:37:01.618Z,29.90
2022-09-06T05:38:01.963Z,32.90
2022-09-06T05:39:02.230Z,43.70
2022-09-06T05:40:02.530Z,35.20
2022-09-06T05:41:02.789Z,31.70
2022-09-06T05:42:03.093Z,31.70
2022-09-06T05:43:03.320Z,35.90
2022-09-06T05:44:03.565Z,28.50
2022-09-06T05:45:03.858Z,23.40
2022-09-06T05:46:04.229Z,26.10
2022-09-06T05:47:04.468Z,19.40
2022-09-06T05:48:04.706Z,20.00
2022-09-06T05:49:04.981Z,16.90
2022-09-06T05:50:05.231Z,19.80
2022-09-06T05:51:05.486Z,17.20
2022-09-06T05:52:05.785Z,16.70
2022-09-06T05:53:05.983Z,15.00
2022-09-06T05:54:06.216Z,15.30
2022-09-06T05:55:06.527Z,14.10
2022-09-06T05:56:06.710Z,15.30
2022-09-06T05:57:06.978Z,14.00
2022-09-06T05:58:07.201Z,14.00
2022-09-06T05:59:07.461Z,15.20
2022-09-06T06:00:07.679Z,15.00
2022-09-06T06:01:08.056Z,14.80
2022-09-06T06:02:08.319Z,19.10
2022-09-06T06:03:08.512Z,13.70
2022-09-06T06:04:08.877Z,13.40
2022-09-06T06:05:09.150Z,12.00
2022-09-06T06:06:09.377Z,13.40
2022-09-06T06:07:09.645Z,11.30
2022-09-06T06:08:09.886Z,12.50
2022-09-06T06:09:10.142Z,15.50
2022-09-06T06:10:10.411Z,15.20
2022-09-06T06:11:10.663Z,9.80
2022-09-06T06:12:10.939Z,13.30
2022-09-06T06:13:11.147Z,11.20
2022-09-06T06:14:11.409Z,10.60
2022-09-06T06:15:11.627Z,15.50
2022-09-06T06:16:12.160Z,11.50
2022-09-06T06:17:12.223Z,12.40
2022-09-06T06:18:12.461Z,12.00
2022-09-06T06:19:12.775Z,12.00
2022-09-06T06:20:12.976Z,10.90
2022-09-06T06:21:13.229Z,15.40
2022-09-06T06:22:13.457Z,12.40
2022-09-06T06:23:13.700Z,9.90
2022-09-06T06:24:14.099Z,10.20
2022-09-06T06:25:14.318Z,13.40
2022-09-06T06:26:14.543Z,12.70
2022-09-06T06:27:14.829Z,13.60
2022-09-06T06:28:15.029Z,13.80
2022-09-06T06:29:15.273Z,11.60
2022-09-06T06:30:18.475Z,13.60
2022-09-06T06:31:15.813Z,12.20
2022-09-06T06:32:16.044Z,12.30
2022-09-06T06:33:16.416Z,14.30
2022-09-06T06:34:16.670Z,14.50
2022-09-06T06:35:16.921Z,12.80
2022-09-06T06:36:17.201Z,10.70
2022-09-06T06:37:17.435Z,13.30
2022-09-06T06:38:17.698Z,13.50
2022-09-06T06:39:17.993Z,13.50
2022-09-06T06:40:18.234Z,12.70
2022-09-06T06:41:18.470Z,11.90
2022-09-06T06:42:18.707Z,13.00
2022-09-06T06:43:18.935Z,14.00
2022-09-06T06:44:19.626Z,13.60
2022-09-06T06:45:19.472Z,15.30
2022-09-06T06:46:19.816Z,14.50
2022-09-06T06:47:20.050Z,12.10
2022-09-06T06:48:20.319Z,18.50
2022-09-06T06:49:20.581Z,13.00
2022-09-06T06:50:20.838Z,13.00
2022-09-06T06:51:21.099Z,12.80
2022-09-06T06:52:21.368Z,15.80
2022-09-06T06:53:21.599Z,14.40
2022-09-06T06:54:21.882Z,15.30
2022-09-06T06:55:22.139Z,11.70
2022-09-06T06:56:22.366Z,10.60
2022-09-06T06:57:22.667Z,11.70
2022-09-06T06:58:22.888Z,15.80
2022-09-06T06:59:23.151Z,12.70
2022-09-06T07:00:27.665Z,12.50
2022-09-06T07:01:23.776Z,12.10
2022-09-06T07:02:24.002Z,14.90
2022-09-06T07:03:24.259Z,14.50
2022-09-06T07:04:24.502Z,12.90
2022-09-06T07:08:25.682Z,16.00
2022-09-06T07:09:26.086Z,12.60
2022-09-06T07:10:33.541Z,15.00
2022-09-06T07:11:27.455Z,12.10
2022-09-06T07:12:26.769Z,11.40
2022-09-06T07:13:27.099Z,11.60
2022-09-06T07:14:27.294Z,16.20
2022-09-06T07:15:27.648Z,13.60
2022-09-06T07:16:27.961Z,12.80
2022-09-06T07:17:28.148Z,10.70
2022-09-06T07:18:28.377Z,12.30
2022-09-06T07:20:30.077Z,12.90
2022-09-06T07:22:30.517Z,13.00
2022-09-06T07:24:31.073Z,11.50
2022-09-06T07:25:30.344Z,15.40
2022-09-06T07:26:30.655Z,14.20
2022-09-06T07:27:47.389Z,9.30
2022-09-06T07:28:32.121Z,12.80
2022-09-06T07:29:31.341Z,16.40
2022-09-06T07:30:31.590Z,10.20
2022-09-06T07:32:33.316Z,13.40
2022-09-06T07:33:32.483Z,13.60
2022-09-06T07:34:32.738Z,13.60
2022-09-06T07:35:32.984Z,10.30
2022-09-06T07:36:33.235Z,11.90
2022-09-06T07:37:33.562Z,13.50
2022-09-06T07:38:33.853Z,11.40
2022-09-06T07:39:34.147Z,9.90
2022-09-06T07:40:34.385Z,11.30
2022-09-06T07:41:34.566Z,9.80
2022-09-06T07:42:36.380Z,9.80
2022-09-06T07:43:35.165Z,13.30
2022-09-06T07:44:35.404Z,12.30
2022-09-06T07:45:35.682Z,11.80
2022-09-06T07:46:36.122Z,10.30
2022-09-06T07:48:37.433Z,16.30
2022-09-06T07:49:36.733Z,12.20
2022-09-06T07:50:54.620Z,13.20
2022-09-06T07:51:38.246Z,16.00
2022-09-06T07:53:38.770Z,13.30
2022-09-06T07:54:38.058Z,15.20
2022-09-06T07:55:38.330Z,10.90
2022-09-06T07:56:38.623Z,15.40
2022-09-06T07:57:38.897Z,11.10
2022-09-06T07:58:39.172Z,15.50
2022-09-06T07:59:42.904Z,11.60
2022-09-06T08:00:39.754Z,10.60
2022-09-06T08:01:40.068Z,15.70
2022-09-06T08:02:40.320Z,12.10
2022-09-06T08:03:40.572Z,10.70
2022-09-06T08:04:40.831Z,11.70
2022-09-06T08:07:42.734Z,17.20
2022-09-06T08:08:57.492Z,13.60
2022-09-06T08:09:43.253Z,13.50
2022-09-06T08:10:42.523Z,12.90
2022-09-06T08:11:42.777Z,15.20
2022-09-06T08:12:42.991Z,13.60
2022-09-06T08:13:43.257Z,15.60
2022-09-06T08:14:43.544Z,12.60
2022-09-06T08:15:43.929Z,16.60
2022-09-06T08:16:44.143Z,14.00
2022-09-06T08:17:44.289Z,11.30
2022-09-06T08:18:44.556Z,13.90
2022-09-06T08:19:44.783Z,16.90
2022-09-06T08:20:45.077Z,12.80
2022-09-06T08:21:45.290Z,14.00
2022-09-06T08:22:45.542Z,17.40
2022-09-06T08:23:45.766Z,16.50
2022-09-06T08:24:46.028Z,19.10
2022-09-06T08:25:46.298Z,15.60
2022-09-06T08:26:46.549Z,16.80
2022-09-06T08:27:46.798Z,12.80
2022-09-06T08:28:47.030Z,16.20
2022-09-06T08:29:47.330Z,14.80
2022-09-06T08:30:47.594Z,14.20
2022-09-06T08:31:47.943Z,14.50
2022-09-06T08:32:48.137Z,14.00
2022-09-06T08:33:48.366Z,12.40
2022-09-06T08:34:48.710Z,14.10
2022-09-06T08:35:48.924Z,12.60
2022-09-06T08:36:49.214Z,14.50
2022-09-06T08:37:49.470Z,11.50
2022-09-06T08:38:49.762Z,10.30
2022-09-06T08:39:50.193Z,18.00
2022-09-06T08:40:50.286Z,13.60
2022-09-06T08:41:50.590Z,14.20
2022-09-06T08:42:50.806Z,15.80
2022-09-06T08:43:51.133Z,13.30
2022-09-06T08:45:55.181Z,14.60
2022-09-06T08:46:52.070Z,15.10
2022-09-06T08:47:52.260Z,13.20
2022-09-06T08:48:52.498Z,15.90
2022-09-06T08:49:52.821Z,19.70
2022-09-06T08:50:53.016Z,16.10
2022-09-06T08:51:53.328Z,15.40
2022-09-06T08:53:13.634Z,17.60
2022-09-06T08:53:54.879Z,14.10
2022-09-06T08:54:54.201Z,14.70
2022-09-06T08:55:54.562Z,16.00
2022-09-06T08:56:54.766Z,15.00
2022-09-06T08:57:55.055Z,15.20
2022-09-06T08:58:55.283Z,18.20
2022-09-06T08:59:55.552Z,11.80
2022-09-06T09:00:55.841Z,14.30
2022-09-06T09:01:56.062Z,16.50
2022-09-06T09:02:56.371Z,18.60
2022-09-06T09:03:56.631Z,17.50
2022-09-06T09:04:56.866Z,16.70
2022-09-06T09:05:57.246Z,14.60
2022-09-06T09:06:57.533Z,15.20
2022-09-06T09:07:57.778Z,13.60
2022-09-06T09:08:58.008Z,18.50
2022-09-06T09:09:58.321Z,16.60
2022-09-06T09:10:58.577Z,13.40
2022-09-06T09:11:58.857Z,13.30
2022-09-06T09:12:59.083Z,16.10
2022-09-06T09:13:59.386Z,12.20
2022-09-06T09:14:59.592Z,12.80
2022-09-06T09:15:59.932Z,11.30
2022-09-06T09:17:00.129Z,12.80
2022-09-06T09:18:00.401Z,14.00
2022-09-06T09:19:00.656Z,12.50
2022-09-06T09:20:00.903Z,11.10
2022-09-06T09:21:01.194Z,12.40
2022-09-06T09:22:01.421Z,12.90
2022-09-06T09:23:01.772Z,18.00
2022-09-06T09:24:01.942Z,15.20
2022-09-06T09:25:02.296Z,15.70
2022-09-06T09:26:02.548Z,9.90
2022-09-06T09:27:02.758Z,12.80
2022-09-06T09:28:03.045Z,11.00
2022-09-06T09:29:03.317Z,13.10
2022-09-06T09:31:07.160Z,13.80
2022-09-06T09:32:04.141Z,14.10
2022-09-06T09:33:04.440Z,11.20
2022-09-06T09:34:04.685Z,13.50
2022-09-06T09:35:04.947Z,13.80
2022-09-06T09:36:05.254Z,12.20
2022-09-06T09:38:11.501Z,9.40
2022-09-06T09:39:07.063Z,10.70
2022-09-06T09:40:06.424Z,12.30
2022-09-06T09:41:06.640Z,14.50
2022-09-06T09:42:06.872Z,10.70
2022-09-06T09:43:07.139Z,11.00
2022-09-06T09:44:07.410Z,10.00
2022-09-06T09:45:07.672Z,12.50
2022-09-06T09:46:07.974Z,11.00
2022-09-06T09:47:08.250Z,12.40
2022-09-06T09:48:08.487Z,14.10
2022-09-06T09:49:08.759Z,10.50
2022-09-06T09:50:09.044Z,12.00
2022-09-06T09:51:09.315Z,9.00
2022-09-06T09:52:09.571Z,10.70
2022-09-06T09:53:09.825Z,12.60
2022-09-06T09:54:10.096Z,9.50
2022-09-06T09:55:10.409Z,10.30
2022-09-06T09:56:10.662Z,9.60
2022-09-06T09:57:12.035Z,9.40
2022-09-06T09:58:11.154Z,8.60
2022-09-06T09:59:11.364Z,10.10
2022-09-06T10:00:11.644Z,12.50
2022-09-06T10:01:11.985Z,11.50
2022-09-06T10:02:12.214Z,9.50
2022-09-06T10:03:12.488Z,10.60
2022-09-06T10:05:13.978Z,10.10
2022-09-06T10:07:14.626Z,11.10
2022-09-06T10:08:13.955Z,9.10
2022-09-06T10:09:19.040Z,10.20
2022-09-06T10:10:15.619Z,13.40
2022-09-06T10:11:14.818Z,10.10
2022-09-06T10:12:15.053Z,12.00
2022-09-06T10:13:15.807Z,12.80
2022-09-06T10:14:15.664Z,11.90
2022-09-06T10:15:15.882Z,10.60
2022-09-06T10:16:16.250Z,8.40
2022-09-06T10:17:16.499Z,11.00
2022-09-06T10:18:16.813Z,8.40
2022-09-06T10:19:17.074Z,9.10
2022-09-06T10:20:17.383Z,10.50
2022-09-06T10:21:17.625Z,12.20
2022-09-06T10:22:17.894Z,8.80
2022-09-06T10:23:18.935Z,10.10
2022-09-06T10:24:27.061Z,9.80
2022-09-06T10:25:20.590Z,10.50
2022-09-06T10:26:18.933Z,13.60
2022-09-06T10:27:19.214Z,11.40
2022-09-06T10:28:19.488Z,11.40
2022-09-06T10:29:19.798Z,8.30
2022-09-06T10:30:20.025Z,8.80
2022-09-06T10:31:20.358Z,10.90
2022-09-06T10:32:20.692Z,8.70
2022-09-06T10:33:20.928Z,9.00
2022-09-06T10:34:21.218Z,12.00
2022-09-06T10:35:21.472Z,11.60
2022-09-06T10:36:21.722Z,11.20
2022-09-06T10:37:22.022Z,10.10
2022-09-06T10:38:22.284Z,11.10
2022-09-06T10:39:22.608Z,11.40
2022-09-06T10:40:22.830Z,12.50
2022-09-06T10:41:23.096Z,11.60
2022-09-06T10:42:23.353Z,9.50
2022-09-06T10:43:23.633Z,10.70
2022-09-06T10:44:23.923Z,11.30
2022-09-06T10:45:24.203Z,11.80
2022-09-06T10:46:24.531Z,13.60
2022-09-06T10:47:24.749Z,9.30
2022-09-06T10:48:25.097Z,8.20
2022-09-06T10:49:25.315Z,12.20
2022-09-06T10:50:25.607Z,12.90
2022-09-06T10:51:25.869Z,10.30
2022-09-06T10:52:26.152Z,11.50
2022-09-06T10:53:26.443Z,10.80
2022-09-06T10:54:26.715Z,11.40
2022-09-06T10:55:26.995Z,12.20
2022-09-06T10:56:27.299Z,9.70
2022-09-06T10:58:29.592Z,9.50
2022-09-06T10:59:35.818Z,11.30
2022-09-06T11:00:29.343Z,11.60
2022-09-06T11:01:28.721Z,11.30
2022-09-06T11:02:29.187Z,11.10
2022-09-06T11:04:30.798Z,8.90
2022-09-06T11:06:30.136Z,9.20
2022-09-06T11:07:30.373Z,10.40
2022-09-06T11:08:46.337Z,10.10
2022-09-06T11:09:31.940Z,10.50
2022-09-06T11:10:31.225Z,10.90
2022-09-06T11:11:31.561Z,10.70
2022-09-06T11:12:31.783Z,9.80
2022-09-06T11:13:32.059Z,10.00
2022-09-06T11:14:32.345Z,9.30
2022-09-06T11:15:32.588Z,9.80
2022-09-06T11:16:32.863Z,11.10
2022-09-06T11:17:33.116Z,9.20
2022-09-06T11:18:33.373Z,8.70
2022-09-06T11:19:33.689Z,9.10
2022-09-06T11:20:33.982Z,14.20
2022-09-06T11:21:34.246Z,13.10
2022-09-06T11:22:34.510Z,13.80
2022-09-06T11:23:34.828Z,16.50
2022-09-06T11:24:35.066Z,11.40
2022-09-06T11:25:35.364Z,11.50
2022-09-06T11:26:35.678Z,12.70
2022-09-06T11:27:35.947Z,10.90
2022-09-06T11:28:36.211Z,12.10
2022-09-06T11:29:36.468Z,10.10
2022-09-06T11:30:36.754Z,13.00
2022-09-06T11:32:38.322Z,10.10
2022-09-06T11:33:37.605Z,12.10
2022-09-06T11:34:37.876Z,12.10
2022-09-06T11:35:38.138Z,12.60
2022-09-06T11:36:38.420Z,13.80
2022-09-06T11:37:38.767Z,13.80
2022-09-06T11:38:38.979Z,9.70
2022-09-06T11:40:40.557Z,13.70
2022-09-06T11:41:39.880Z,11.70
2022-09-06T11:42:40.056Z,12.40
2022-09-06T11:43:40.280Z,13.40
2022-09-06T11:44:40.556Z,11.70
2022-09-06T11:45:40.834Z,9.90
2022-09-06T11:46:41.151Z,10.10
2022-09-06T11:47:41.395Z,13.20
2022-09-06T11:48:41.649Z,10.20
2022-09-06T11:49:41.983Z,12.60
2022-09-06T11:50:42.189Z,12.20
2022-09-06T11:51:42.718Z,11.10
2022-09-06T11:52:42.832Z,9.10
2022-09-06T11:53:43.066Z,13.10
2022-09-06T11:54:43.798Z,14.80
2022-09-06T11:55:43.622Z,13.00
2022-09-06T11:56:43.887Z,11.10
2022-09-06T11:57:44.210Z,10.40
2022-09-06T11:58:44.486Z,9.80
2022-09-06T11:59:44.674Z,14.20
2022-09-06T12:00:44.953Z,11.80
2022-09-06T12:01:45.264Z,14.60
2022-09-06T12:02:45.693Z,9.00
2022-09-06T12:04:47.017Z,10.20
2022-09-06T12:05:46.355Z,11.90
2022-09-06T12:06:46.668Z,11.10
2022-09-06T12:07:46.933Z,10.40
2022-09-06T12:08:47.212Z,12.90
2022-09-06T12:09:47.523Z,9.30
2022-09-06T12:10:47.838Z,7.80
2022-09-06T12:11:48.049Z,12.60
2022-09-06T12:12:48.374Z,11.70
2022-09-06T12:13:48.657Z,11.50
2022-09-06T12:14:48.880Z,12.80
2022-09-06T12:15:49.669Z,11.00
2022-09-06T12:16:49.489Z,10.40
2022-09-06T12:17:49.751Z,12.20
2022-09-06T12:18:50.086Z,10.20
2022-09-06T12:19:50.405Z,10.20
2022-09-06T12:20:50.623Z,13.80
2022-09-06T12:21:50.907Z,10.70
2022-09-06T12:22:51.229Z,14.00
2022-09-06T12:23:51.595Z,9.50
2022-09-06T12:24:51.845Z,10.90
2022-09-06T12:25:52.208Z,11.50
2022-09-06T12:26:55.597Z,11.30
2022-09-06T12:27:52.717Z,11.20
2022-09-06T12:28:53.032Z,16.00
2022-09-06T12:29:53.277Z,14.50
2022-09-06T12:30:53.568Z,10.20
2022-09-06T12:31:53.825Z,13.70
2022-09-06T12:32:54.093Z,12.10
2022-09-06T12:33:54.336Z,11.70
2022-09-06T12:36:55.045Z,14.20
2022-09-06T12:37:55.474Z,12.30
2022-09-06T12:38:55.774Z,11.60
2022-09-06T12:39:56.041Z,13.20
2022-09-06T12:40:56.234Z,11.30
2022-09-06T12:41:56.509Z,9.60
2022-09-06T12:42:56.754Z,11.50
2022-09-06T12:43:57.141Z,18.40
2022-09-06T12:44:57.325Z,11.50
2022-09-06T12:45:57.595Z,10.60
2022-09-06T12:46:57.874Z,10.00
2022-09-06T12:47:58.103Z,12.10
2022-09-06T12:48:58.431Z,11.60
2022-09-06T12:49:58.645Z,11.10
2022-09-06T12:50:58.910Z,9.40
2022-09-06T12:51:59.166Z,11.90
2022-09-06T12:52:59.455Z,10.40
2022-09-06T12:53:59.690Z,11.70
2022-09-06T12:54:59.985Z,11.90
2022-09-06T12:56:00.274Z,11.80
2022-09-06T12:57:00.576Z,11.60
2022-09-06T12:58:00.833Z,10.60
2022-09-06T12:59:01.143Z,11.20
2022-09-06T13:00:01.495Z,12.10
2022-09-06T13:01:01.662Z,10.60
2022-09-06T13:02:02.051Z,10.20
2022-09-06T13:03:02.210Z,7.60
2022-09-06T13:04:02.506Z,17.90
2022-09-06T13:05:02.699Z,8.30
2022-09-06T13:06:03.026Z,9.90
2022-09-06T13:07:03.254Z,15.40
2022-09-06T13:08:03.564Z,17.90
2022-09-06T13:09:03.965Z,13.50
2022-09-06T13:10:04.033Z,12.00
2022-09-06T13:11:04.355Z,15.30
2022-09-06T13:12:04.610Z,12.10
2022-09-06T13:13:04.877Z,15.10
2022-09-06T13:14:05.255Z,11.70
2022-09-06T13:15:05.426Z,10.90
2022-09-06T13:16:05.767Z,9.50
2022-09-06T13:17:05.965Z,9.80
2022-09-06T13:18:06.330Z,10.00
2022-09-06T13:19:06.586Z,11.00
2022-09-06T13:20:06.838Z,11.20
2022-09-06T13:21:07.069Z,12.00
2022-09-06T13:22:07.338Z,11.20
2022-09-06T13:23:07.586Z,10.40
2022-09-06T13:24:07.841Z,14.00